sensor_id;sensor_type;location;lat;lon;timestamp;P1;durP1;ratioP1;P2;durP2;ratioP2
26512;SDS011;14186;53.822;10.152;2023-01-28T00:03:19;5.03;;;1.80;;
26512;SDS011;14186;53.822;10.152;2023-01-28T00:08:20;5.65;;;2.03;;
26512;SDS011;14186;53.822;10.152;2023-01-28T00:13:21;4.28;;;2.08;;
26512;SDS011;14186;53.822;10.152;2023-01-28T00:18:21;4.43;;;2.15;;
26512;SDS011;14186;53.822;10.152;2023-01-28T00:23:22;4.53;;;2.20;;
26512;SDS011;14186;53.822;10.152;2023-01-28T00:28:23;4.72;;;1.98;;
26512;SDS011;14186;53.822;10.152;2023-01-28T00:33:23;4.45;;;1.88;;
26512;SDS011;14186;53.822;10.152;2023-01-28T00:38:25;7.45;;;1.70;;
26512;SDS011;14186;53.822;10.152;2023-01-28T00:43:25;5.63;;;2.25;;
26512;SDS011;14186;53.822;10.152;2023-01-28T00:48:25;3.75;;;2.30;;
26512;SDS011;14186;53.822;10.152;2023-01-28T00:53:27;4.50;;;2.08;;
26512;SDS011;14186;53.822;10.152;2023-01-28T00:58:27;4.68;;;2.15;;
26512;SDS011;14186;53.822;10.152;2023-01-28T01:03:27;2.80;;;1.85;;
26512;SDS011;14186;53.822;10.152;2023-01-28T01:08:29;16.30;;;5.22;;
26512;SDS011;14186;53.822;10.152;2023-01-28T01:13:29;10.77;;;4.38;;
26512;SDS011;14186;53.822;10.152;2023-01-28T01:18:30;5.97;;;2.85;;
26512;SDS011;14186;53.822;10.152;2023-01-28T01:23:32;6.93;;;3.33;;
26512;SDS011;14186;53.822;10.152;2023-01-28T01:28:32;9.70;;;3.83;;
26512;SDS011;14186;53.822;10.152;2023-01-28T01:33:32;5.97;;;2.50;;
26512;SDS011;14186;53.822;10.152;2023-01-28T01:38:34;4.75;;;1.95;;
26512;SDS011;14186;53.822;10.152;2023-01-28T01:43:45;5.10;;;1.70;;
26512;SDS011;14186;53.822;10.152;2023-01-28T01:48:45;3.10;;;1.60;;
26512;SDS011;14186;53.822;10.152;2023-01-28T01:53:48;6.18;;;2.08;;
26512;SDS011;14186;53.822;10.152;2023-01-28T01:58:50;6.30;;;1.98;;
26512;SDS011;14186;53.822;10.152;2023-01-28T02:03:54;5.50;;;1.83;;
26512;SDS011;14186;53.822;10.152;2023-01-28T02:08:58;5.03;;;1.60;;
26512;SDS011;14186;53.822;10.152;2023-01-28T02:13:59;2.78;;;1.60;;
26512;SDS011;14186;53.822;10.152;2023-01-28T02:19:00;4.00;;;1.90;;
26512;SDS011;14186;53.822;10.152;2023-01-28T02:24:09;4.40;;;1.92;;
26512;SDS011;14186;53.822;10.152;2023-01-28T02:29:16;6.03;;;1.73;;
26512;SDS011;14186;53.822;10.152;2023-01-28T02:39:21;7.40;;;2.60;;
26512;SDS011;14186;53.822;10.152;2023-01-28T02:44:24;8.05;;;2.60;;
26512;SDS011;14186;53.822;10.152;2023-01-28T02:49:25;10.18;;;3.78;;
26512;SDS011;14186;53.822;10.152;2023-01-28T02:54:30;6.25;;;2.47;;
26512;SDS011;14186;53.822;10.152;2023-01-28T02:59:34;5.70;;;1.75;;
26512;SDS011;14186;53.822;10.152;2023-01-28T03:04:36;2.72;;;1.60;;
26512;SDS011;14186;53.822;10.152;2023-01-28T03:09:37;4.55;;;2.35;;
26512;SDS011;14186;53.822;10.152;2023-01-28T03:14:39;4.45;;;1.90;;
26512;SDS011;14186;53.822;10.152;2023-01-28T03:19:40;5.20;;;2.13;;
26512;SDS011;14186;53.822;10.152;2023-01-28T03:24:41;4.70;;;2.08;;
26512;SDS011;14186;53.822;10.152;2023-01-28T03:29:44;3.38;;;1.60;;
26512;SDS011;14186;53.822;10.152;2023-01-28T03:34:45;3.90;;;2.20;;
26512;SDS011;14186;53.822;10.152;2023-01-28T03:39:46;4.38;;;1.73;;
26512;SDS011;14186;53.822;10.152;2023-01-28T03:44:47;4.70;;;2.08;;
26512;SDS011;14186;53.822;10.152;2023-01-28T03:49:48;4.65;;;2.30;;
26512;SDS011;14186;53.822;10.152;2023-01-28T03:54:49;4.38;;;2.33;;
26512;SDS011;14186;53.822;10.152;2023-01-28T03:59:51;6.38;;;2.00;;
26512;SDS011;14186;53.822;10.152;2023-01-28T04:04:51;4.70;;;2.05;;
26512;SDS011;14186;53.822;10.152;2023-01-28T04:09:51;4.53;;;2.50;;
26512;SDS011;14186;53.822;10.152;2023-01-28T04:14:55;5.13;;;2.50;;
26512;SDS011;14186;53.822;10.152;2023-01-28T04:19:55;3.47;;;2.42;;
26512;SDS011;14186;53.822;10.152;2023-01-28T04:24:55;5.18;;;2.95;;
26512;SDS011;14186;53.822;10.152;2023-01-28T04:29:57;5.38;;;2.92;;
26512;SDS011;14186;53.822;10.152;2023-01-28T04:34:57;5.63;;;2.90;;
26512;SDS011;14186;53.822;10.152;2023-01-28T04:39:58;5.38;;;2.65;;
26512;SDS011;14186;53.822;10.152;2023-01-28T04:44:59;4.75;;;2.72;;
26512;SDS011;14186;53.822;10.152;2023-01-28T04:49:59;6.75;;;3.05;;
26512;SDS011;14186;53.822;10.152;2023-01-28T04:55:00;8.57;;;3.20;;
26512;SDS011;14186;53.822;10.152;2023-01-28T05:00:02;4.82;;;3.00;;
26512;SDS011;14186;53.822;10.152;2023-01-28T05:05:02;9.68;;;3.35;;
26512;SDS011;14186;53.822;10.152;2023-01-28T05:10:03;11.18;;;4.03;;
26512;SDS011;14186;53.822;10.152;2023-01-28T05:15:09;8.10;;;3.47;;
26512;SDS011;14186;53.822;10.152;2023-01-28T05:20:09;5.93;;;3.47;;
26512;SDS011;14186;53.822;10.152;2023-01-28T05:25:10;7.65;;;3.22;;
26512;SDS011;14186;53.822;10.152;2023-01-28T05:30:12;12.35;;;3.75;;
26512;SDS011;14186;53.822;10.152;2023-01-28T05:35:12;6.32;;;2.95;;
26512;SDS011;14186;53.822;10.152;2023-01-28T05:40:12;6.47;;;3.30;;
26512;SDS011;14186;53.822;10.152;2023-01-28T05:45:15;9.02;;;3.83;;
26512;SDS011;14186;53.822;10.152;2023-01-28T05:50:15;5.93;;;3.47;;
26512;SDS011;14186;53.822;10.152;2023-01-28T05:55:16;7.78;;;3.60;;
26512;SDS011;14186;53.822;10.152;2023-01-28T06:00:18;8.60;;;3.90;;
26512;SDS011;14186;53.822;10.152;2023-01-28T06:05:18;8.05;;;3.33;;
26512;SDS011;14186;53.822;10.152;2023-01-28T06:10:18;7.75;;;3.92;;
26512;SDS011;14186;53.822;10.152;2023-01-28T06:15:20;5.93;;;3.63;;
26512;SDS011;14186;53.822;10.152;2023-01-28T06:20:21;8.02;;;3.85;;
26512;SDS011;14186;53.822;10.152;2023-01-28T06:25:21;9.25;;;4.32;;
26512;SDS011;14186;53.822;10.152;2023-01-28T06:30:22;9.00;;;4.25;;
26512;SDS011;14186;53.822;10.152;2023-01-28T06:35:23;7.28;;;5.07;;
26512;SDS011;14186;53.822;10.152;2023-01-28T06:40:23;10.10;;;5.75;;
26512;SDS011;14186;53.822;10.152;2023-01-28T06:45:25;11.93;;;5.30;;
26512;SDS011;14186;53.822;10.152;2023-01-28T06:50:25;10.27;;;5.32;;
26512;SDS011;14186;53.822;10.152;2023-01-28T06:55:25;13.85;;;5.13;;
26512;SDS011;14186;53.822;10.152;2023-01-28T07:00:27;11.48;;;5.57;;
26512;SDS011;14186;53.822;10.152;2023-01-28T07:05:27;9.98;;;5.60;;
26512;SDS011;14186;53.822;10.152;2023-01-28T07:10:27;13.10;;;5.55;;
26512;SDS011;14186;53.822;10.152;2023-01-28T07:15:29;11.57;;;5.57;;
26512;SDS011;14186;53.822;10.152;2023-01-28T07:20:29;12.90;;;6.10;;
26512;SDS011;14186;53.822;10.152;2023-01-28T07:25:30;11.95;;;6.00;;
26512;SDS011;14186;53.822;10.152;2023-01-28T07:30:31;13.90;;;6.10;;
26512;SDS011;14186;53.822;10.152;2023-01-28T07:35:31;11.95;;;6.90;;
26512;SDS011;14186;53.822;10.152;2023-01-28T07:40:31;17.15;;;7.88;;
26512;SDS011;14186;53.822;10.152;2023-01-28T07:45:33;17.20;;;7.95;;
26512;SDS011;14186;53.822;10.152;2023-01-28T07:50:34;19.10;;;8.95;;
26512;SDS011;14186;53.822;10.152;2023-01-28T07:55:34;15.48;;;8.93;;
26512;SDS011;14186;53.822;10.152;2023-01-28T08:00:37;16.10;;;8.80;;
26512;SDS011;14186;53.822;10.152;2023-01-28T08:05:38;16.55;;;7.60;;
26512;SDS011;14186;53.822;10.152;2023-01-28T08:10:39;17.42;;;9.10;;
26512;SDS011;14186;53.822;10.152;2023-01-28T08:15:40;21.63;;;9.63;;
26512;SDS011;14186;53.822;10.152;2023-01-28T08:20:41;17.00;;;9.00;;
26512;SDS011;14186;53.822;10.152;2023-01-28T08:25:42;18.77;;;9.10;;
26512;SDS011;14186;53.822;10.152;2023-01-28T08:30:43;18.83;;;10.52;;
26512;SDS011;14186;53.822;10.152;2023-01-28T08:35:43;22.95;;;9.80;;
26512;SDS011;14186;53.822;10.152;2023-01-28T08:40:44;19.45;;;9.93;;
26512;SDS011;14186;53.822;10.152;2023-01-28T08:45:45;17.52;;;9.88;;
26512;SDS011;14186;53.822;10.152;2023-01-28T08:50:46;20.08;;;10.40;;
26512;SDS011;14186;53.822;10.152;2023-01-28T08:55:46;16.52;;;8.35;;
26512;SDS011;14186;53.822;10.152;2023-01-28T09:00:48;17.35;;;8.38;;
26512;SDS011;14186;53.822;10.152;2023-01-28T09:05:48;16.98;;;9.65;;
26512;SDS011;14186;53.822;10.152;2023-01-28T09:10:48;18.65;;;8.57;;
26512;SDS011;14186;53.822;10.152;2023-01-28T09:15:55;14.48;;;7.82;;
26512;SDS011;14186;53.822;10.152;2023-01-28T09:20:55;15.02;;;8.30;;
26512;SDS011;14186;53.822;10.152;2023-01-28T09:25:58;14.95;;;8.07;;
26512;SDS011;14186;53.822;10.152;2023-01-28T09:31:04;17.05;;;8.50;;
26512;SDS011;14186;53.822;10.152;2023-01-28T09:36:05;15.75;;;8.07;;
26512;SDS011;14186;53.822;10.152;2023-01-28T09:41:10;15.00;;;7.25;;
26512;SDS011;14186;53.822;10.152;2023-01-28T09:46:17;14.25;;;7.55;;
26512;SDS011;14186;53.822;10.152;2023-01-28T09:51:21;15.20;;;7.68;;
26512;SDS011;14186;53.822;10.152;2023-01-28T09:56:27;14.82;;;7.90;;
26512;SDS011;14186;53.822;10.152;2023-01-28T10:06:51;12.57;;;7.18;;
26512;SDS011;14186;53.822;10.152;2023-01-28T10:11:57;13.68;;;7.20;;
26512;SDS011;14186;53.822;10.152;2023-01-28T10:17:00;13.73;;;6.85;;
26512;SDS011;14186;53.822;10.152;2023-01-28T10:22:05;12.40;;;7.32;;
26512;SDS011;14186;53.822;10.152;2023-01-28T10:27:08;11.73;;;7.25;;
26512;SDS011;14186;53.822;10.152;2023-01-28T10:32:15;14.82;;;8.45;;
26512;SDS011;14186;53.822;10.152;2023-01-28T10:37:16;12.57;;;7.43;;
26512;SDS011;14186;53.822;10.152;2023-01-28T10:42:19;19.30;;;8.68;;
26512;SDS011;14186;53.822;10.152;2023-01-28T10:47:26;14.32;;;9.00;;
26512;SDS011;14186;53.822;10.152;2023-01-28T10:52:29;14.27;;;8.50;;
26512;SDS011;14186;53.822;10.152;2023-01-28T10:57:29;18.48;;;8.80;;
26512;SDS011;14186;53.822;10.152;2023-01-28T11:02:32;17.90;;;8.52;;
26512;SDS011;14186;53.822;10.152;2023-01-28T11:07:34;15.88;;;9.35;;
26512;SDS011;14186;53.822;10.152;2023-01-28T11:12:34;17.02;;;9.65;;
26512;SDS011;14186;53.822;10.152;2023-01-28T11:17:35;16.88;;;8.40;;
26512;SDS011;14186;53.822;10.152;2023-01-28T11:22:41;12.90;;;9.02;;
26512;SDS011;14186;53.822;10.152;2023-01-28T11:27:45;17.08;;;9.40;;
26512;SDS011;14186;53.822;10.152;2023-01-28T11:32:52;15.52;;;8.13;;
26512;SDS011;14186;53.822;10.152;2023-01-28T11:37:56;17.15;;;8.98;;
26512;SDS011;14186;53.822;10.152;2023-01-28T11:42:56;14.23;;;8.60;;
26512;SDS011;14186;53.822;10.152;2023-01-28T11:47:59;16.80;;;9.30;;
26512;SDS011;14186;53.822;10.152;2023-01-28T11:53:15;18.23;;;9.00;;
26512;SDS011;14186;53.822;10.152;2023-01-28T11:58:26;15.18;;;9.52;;
26512;SDS011;14186;53.822;10.152;2023-01-28T12:03:38;17.35;;;9.63;;
26512;SDS011;14186;53.822;10.152;2023-01-28T12:08:43;18.40;;;8.75;;
26512;SDS011;14186;53.822;10.152;2023-01-28T12:13:49;15.98;;;8.93;;
26512;SDS011;14186;53.822;10.152;2023-01-28T12:18:58;17.73;;;9.18;;
26512;SDS011;14186;53.822;10.152;2023-01-28T12:24:11;17.67;;;9.43;;
26512;SDS011;14186;53.822;10.152;2023-01-28T12:29:17;14.90;;;9.23;;
26512;SDS011;14186;53.822;10.152;2023-01-28T12:39:43;15.43;;;8.75;;
26512;SDS011;14186;53.822;10.152;2023-01-28T12:44:47;15.18;;;9.45;;
26512;SDS011;14186;53.822;10.152;2023-01-28T12:49:49;15.80;;;9.32;;
26512;SDS011;14186;53.822;10.152;2023-01-28T12:54:55;15.32;;;9.48;;
26512;SDS011;14186;53.822;10.152;2023-01-28T13:04:59;16.40;;;9.38;;
26512;SDS011;14186;53.822;10.152;2023-01-28T13:10:08;18.23;;;10.10;;
26512;SDS011;14186;53.822;10.152;2023-01-28T13:15:10;17.17;;;9.65;;
26512;SDS011;14186;53.822;10.152;2023-01-28T13:20:15;17.98;;;9.90;;
26512;SDS011;14186;53.822;10.152;2023-01-28T13:25:19;58.00;;;22.75;;
26512;SDS011;14186;53.822;10.152;2023-01-28T13:30:23;26.90;;;13.27;;
26512;SDS011;14186;53.822;10.152;2023-01-28T13:35:27;16.50;;;9.87;;
26512;SDS011;14186;53.822;10.152;2023-01-28T13:40:30;17.38;;;11.25;;
26512;SDS011;14186;53.822;10.152;2023-01-28T13:45:31;19.83;;;10.88;;
26512;SDS011;14186;53.822;10.152;2023-01-28T13:50:34;19.63;;;10.30;;
26512;SDS011;14186;53.822;10.152;2023-01-28T13:55:38;17.80;;;9.45;;
26512;SDS011;14186;53.822;10.152;2023-01-28T14:00:40;19.83;;;10.55;;
26512;SDS011;14186;53.822;10.152;2023-01-28T14:05:59;28.30;;;13.57;;
26512;SDS011;14186;53.822;10.152;2023-01-28T14:11:12;18.25;;;10.27;;
26512;SDS011;14186;53.822;10.152;2023-01-28T14:16:19;19.13;;;11.05;;
26512;SDS011;14186;53.822;10.152;2023-01-28T14:21:21;18.45;;;9.20;;
26512;SDS011;14186;53.822;10.152;2023-01-28T14:26:27;16.88;;;9.25;;
26512;SDS011;14186;53.822;10.152;2023-01-28T14:31:30;19.05;;;9.80;;
26512;SDS011;14186;53.822;10.152;2023-01-28T14:36:34;17.98;;;9.82;;
26512;SDS011;14186;53.822;10.152;2023-01-28T14:41:36;27.95;;;15.13;;
26512;SDS011;14186;53.822;10.152;2023-01-28T14:46:38;25.58;;;14.45;;
26512;SDS011;14186;53.822;10.152;2023-01-28T14:51:43;19.55;;;10.02;;
26512;SDS011;14186;53.822;10.152;2023-01-28T14:56:53;19.20;;;9.43;;
26512;SDS011;14186;53.822;10.152;2023-01-28T15:01:58;18.17;;;10.10;;
26512;SDS011;14186;53.822;10.152;2023-01-28T15:07:00;18.83;;;9.50;;
26512;SDS011;14186;53.822;10.152;2023-01-28T15:12:02;19.80;;;9.02;;
26512;SDS011;14186;53.822;10.152;2023-01-28T15:17:05;18.83;;;9.57;;
26512;SDS011;14186;53.822;10.152;2023-01-28T15:22:12;21.27;;;10.82;;
26512;SDS011;14186;53.822;10.152;2023-01-28T15:27:16;20.27;;;10.60;;
26512;SDS011;14186;53.822;10.152;2023-01-28T15:32:19;18.95;;;9.93;;
26512;SDS011;14186;53.822;10.152;2023-01-28T15:37:21;17.45;;;9.65;;
26512;SDS011;14186;53.822;10.152;2023-01-28T15:42:23;18.58;;;10.10;;
26512;SDS011;14186;53.822;10.152;2023-01-28T15:47:25;22.02;;;9.65;;
26512;SDS011;14186;53.822;10.152;2023-01-28T15:52:28;19.70;;;10.15;;
26512;SDS011;14186;53.822;10.152;2023-01-28T15:57:31;20.48;;;10.02;;
26512;SDS011;14186;53.822;10.152;2023-01-28T16:02:32;20.20;;;9.95;;
26512;SDS011;14186;53.822;10.152;2023-01-28T16:07:41;19.77;;;10.23;;
26512;SDS011;14186;53.822;10.152;2023-01-28T16:12:48;17.73;;;9.52;;
26512;SDS011;14186;53.822;10.152;2023-01-28T16:17:49;17.67;;;8.82;;
26512;SDS011;14186;53.822;10.152;2023-01-28T16:22:49;16.35;;;8.45;;
26512;SDS011;14186;53.822;10.152;2023-01-28T16:27:51;18.38;;;10.02;;
26512;SDS011;14186;53.822;10.152;2023-01-28T16:32:52;16.55;;;8.18;;
26512;SDS011;14186;53.822;10.152;2023-01-28T16:37:52;22.25;;;9.68;;
26512;SDS011;14186;53.822;10.152;2023-01-28T16:42:54;18.42;;;9.23;;
26512;SDS011;14186;53.822;10.152;2023-01-28T16:47:54;21.65;;;10.50;;
26512;SDS011;14186;53.822;10.152;2023-01-28T16:52:55;19.30;;;9.65;;
26512;SDS011;14186;53.822;10.152;2023-01-28T16:57:56;21.80;;;10.55;;
26512;SDS011;14186;53.822;10.152;2023-01-28T17:02:56;22.77;;;10.45;;
26512;SDS011;14186;53.822;10.152;2023-01-28T17:07:57;23.83;;;10.88;;
26512;SDS011;14186;53.822;10.152;2023-01-28T17:12:58;23.98;;;11.13;;
26512;SDS011;14186;53.822;10.152;2023-01-28T17:17:58;23.25;;;11.07;;
26512;SDS011;14186;53.822;10.152;2023-01-28T17:22:59;25.95;;;11.70;;
26512;SDS011;14186;53.822;10.152;2023-01-28T17:28:00;23.65;;;10.63;;
26512;SDS011;14186;53.822;10.152;2023-01-28T17:33:01;24.75;;;12.15;;
26512;SDS011;14186;53.822;10.152;2023-01-28T17:38:01;27.13;;;11.55;;
26512;SDS011;14186;53.822;10.152;2023-01-28T17:43:03;26.63;;;12.10;;
26512;SDS011;14186;53.822;10.152;2023-01-28T17:48:03;26.42;;;12.73;;
26512;SDS011;14186;53.822;10.152;2023-01-28T17:53:04;26.33;;;11.20;;
26512;SDS011;14186;53.822;10.152;2023-01-28T17:58:06;24.50;;;11.25;;
26512;SDS011;14186;53.822;10.152;2023-01-28T18:03:08;25.10;;;11.80;;
26512;SDS011;14186;53.822;10.152;2023-01-28T18:08:09;25.98;;;12.23;;
26512;SDS011;14186;53.822;10.152;2023-01-28T18:13:11;26.75;;;12.20;;
26512;SDS011;14186;53.822;10.152;2023-01-28T18:18:11;23.63;;;11.55;;
26512;SDS011;14186;53.822;10.152;2023-01-28T18:23:11;24.15;;;11.65;;
26512;SDS011;14186;53.822;10.152;2023-01-28T18:28:13;21.90;;;10.98;;
26512;SDS011;14186;53.822;10.152;2023-01-28T18:33:13;23.65;;;11.32;;
26512;SDS011;14186;53.822;10.152;2023-01-28T18:38:13;32.40;;;14.05;;
26512;SDS011;14186;53.822;10.152;2023-01-28T18:43:16;27.00;;;12.35;;
26512;SDS011;14186;53.822;10.152;2023-01-28T18:48:16;27.08;;;12.48;;
26512;SDS011;14186;53.822;10.152;2023-01-28T18:53:17;24.42;;;11.80;;
26512;SDS011;14186;53.822;10.152;2023-01-28T18:58:18;26.63;;;10.85;;
26512;SDS011;14186;53.822;10.152;2023-01-28T19:03:18;23.60;;;11.57;;
26512;SDS011;14186;53.822;10.152;2023-01-28T19:08:19;25.48;;;11.48;;
26512;SDS011;14186;53.822;10.152;2023-01-28T19:13:20;25.33;;;11.38;;
26512;SDS011;14186;53.822;10.152;2023-01-28T19:18:21;22.75;;;11.88;;
26512;SDS011;14186;53.822;10.152;2023-01-28T19:23:21;23.88;;;11.77;;
26512;SDS011;14186;53.822;10.152;2023-01-28T19:28:22;25.60;;;12.40;;
26512;SDS011;14186;53.822;10.152;2023-01-28T19:33:23;23.10;;;11.52;;
26512;SDS011;14186;53.822;10.152;2023-01-28T19:38:23;22.30;;;11.45;;
26512;SDS011;14186;53.822;10.152;2023-01-28T19:43:25;26.42;;;12.65;;
26512;SDS011;14186;53.822;10.152;2023-01-28T19:48:26;22.65;;;11.13;;
26512;SDS011;14186;53.822;10.152;2023-01-28T19:53:26;25.48;;;12.18;;
26512;SDS011;14186;53.822;10.152;2023-01-28T19:58:28;24.20;;;12.55;;
26512;SDS011;14186;53.822;10.152;2023-01-28T20:03:31;25.63;;;12.65;;
26512;SDS011;14186;53.822;10.152;2023-01-28T20:08:31;22.95;;;11.80;;
26512;SDS011;14186;53.822;10.152;2023-01-28T20:13:34;25.75;;;12.27;;
26512;SDS011;14186;53.822;10.152;2023-01-28T20:18:34;24.95;;;11.88;;
26512;SDS011;14186;53.822;10.152;2023-01-28T20:23:34;26.13;;;12.75;;
26512;SDS011;14186;53.822;10.152;2023-01-28T20:28:36;26.58;;;13.50;;
26512;SDS011;14186;53.822;10.152;2023-01-28T20:33:36;27.20;;;13.05;;
26512;SDS011;14186;53.822;10.152;2023-01-28T20:38:37;26.88;;;13.32;;
26512;SDS011;14186;53.822;10.152;2023-01-28T20:43:39;26.88;;;13.45;;
26512;SDS011;14186;53.822;10.152;2023-01-28T20:48:40;29.35;;;14.75;;
26512;SDS011;14186;53.822;10.152;2023-01-28T20:53:40;25.98;;;13.75;;
26512;SDS011;14186;53.822;10.152;2023-01-28T20:58:42;27.98;;;13.85;;
26512;SDS011;14186;53.822;10.152;2023-01-28T21:03:42;27.00;;;13.82;;
26512;SDS011;14186;53.822;10.152;2023-01-28T21:08:42;32.13;;;14.48;;
26512;SDS011;14186;53.822;10.152;2023-01-28T21:13:44;29.10;;;13.25;;
26512;SDS011;14186;53.822;10.152;2023-01-28T21:18:45;28.60;;;13.75;;
26512;SDS011;14186;53.822;10.152;2023-01-28T21:23:45;29.70;;;14.25;;
26512;SDS011;14186;53.822;10.152;2023-01-28T21:28:47;31.17;;;14.30;;
26512;SDS011;14186;53.822;10.152;2023-01-28T21:33:47;27.05;;;13.60;;
26512;SDS011;14186;53.822;10.152;2023-01-28T21:38:49;25.58;;;12.60;;
26512;SDS011;14186;53.822;10.152;2023-01-28T21:43:51;27.25;;;14.95;;
26512;SDS011;14186;53.822;10.152;2023-01-28T21:48:52;32.22;;;14.38;;
26512;SDS011;14186;53.822;10.152;2023-01-28T21:53:52;31.35;;;14.23;;
26512;SDS011;14186;53.822;10.152;2023-01-28T21:58:54;29.25;;;14.07;;
26512;SDS011;14186;53.822;10.152;2023-01-28T22:03:54;27.98;;;13.95;;
26512;SDS011;14186;53.822;10.152;2023-01-28T22:08:54;26.27;;;13.90;;
26512;SDS011;14186;53.822;10.152;2023-01-28T22:13:56;28.85;;;13.38;;
26512;SDS011;14186;53.822;10.152;2023-01-28T22:18:56;27.98;;;13.65;;
26512;SDS011;14186;53.822;10.152;2023-01-28T22:23:56;27.50;;;13.40;;
26512;SDS011;14186;53.822;10.152;2023-01-28T22:28:58;27.35;;;13.38;;
26512;SDS011;14186;53.822;10.152;2023-01-28T22:33:58;30.08;;;13.45;;
26512;SDS011;14186;53.822;10.152;2023-01-28T22:38:59;29.50;;;13.40;;
26512;SDS011;14186;53.822;10.152;2023-01-28T22:44:01;30.27;;;13.07;;
26512;SDS011;14186;53.822;10.152;2023-01-28T22:49:01;28.65;;;14.60;;
26512;SDS011;14186;53.822;10.152;2023-01-28T22:54:02;30.95;;;13.73;;
26512;SDS011;14186;53.822;10.152;2023-01-28T22:59:03;30.70;;;13.60;;
26512;SDS011;14186;53.822;10.152;2023-01-28T23:04:03;30.83;;;13.95;;
26512;SDS011;14186;53.822;10.152;2023-01-28T23:09:04;29.40;;;14.38;;
26512;SDS011;14186;53.822;10.152;2023-01-28T23:14:05;23.92;;;12.40;;
26512;SDS011;14186;53.822;10.152;2023-01-28T23:19:06;26.48;;;13.45;;
26512;SDS011;14186;53.822;10.152;2023-01-28T23:24:09;27.30;;;12.70;;
26512;SDS011;14186;53.822;10.152;2023-01-28T23:29:10;25.05;;;12.88;;
26512;SDS011;14186;53.822;10.152;2023-01-28T23:34:10;26.77;;;12.57;;
26512;SDS011;14186;53.822;10.152;2023-01-28T23:39:11;25.40;;;12.10;;
26512;SDS011;14186;53.822;10.152;2023-01-28T23:44:12;22.83;;;11.95;;
26512;SDS011;14186;53.822;10.152;2023-01-28T23:49:12;20.00;;;11.68;;
26512;SDS011;14186;53.822;10.152;2023-01-28T23:54:13;23.00;;;11.05;;
26512;SDS011;14186;53.822;10.152;2023-01-28T23:59:14;22.83;;;11.70;;
